createdAt,value
2022-08-07T00:02:37.252Z,6.38
2022-08-07T00:04:36.336Z,5.93
2022-08-07T00:07:15.981Z,5.60
2022-08-07T00:10:04.683Z,5.78
2022-08-07T00:12:56.923Z,5.40
2022-08-07T00:18:02.528Z,5.30
2022-08-07T00:20:40.373Z,5.93
2022-08-07T00:23:09.047Z,5.72
2022-08-07T00:25:41.503Z,5.80
2022-08-07T00:28:12.785Z,5.72
2022-08-07T00:33:26.607Z,6.00
2022-08-07T00:35:58.557Z,5.85
2022-08-07T00:38:31.812Z,5.63
2022-08-07T00:41:04.956Z,5.80
2022-08-07T00:44:02.024Z,6.18
2022-08-07T00:46:36.415Z,6.28
2022-08-07T00:49:09.210Z,5.72
2022-08-07T00:51:57.054Z,6.53
2022-08-07T00:54:30.832Z,5.95
2022-08-07T00:57:02.796Z,5.57
2022-08-07T00:59:37.296Z,5.90
2022-08-07T01:02:27.829Z,5.88
2022-08-07T01:05:01.082Z,5.85
2022-08-07T01:07:31.552Z,5.80
2022-08-07T01:10:06.252Z,6.00
2022-08-07T01:12:53.701Z,6.15
2022-08-07T01:18:10.156Z,6.45
2022-08-07T01:20:44.351Z,5.90
2022-08-07T01:23:37.897Z,6.63
2022-08-07T01:26:12.918Z,6.20
2022-08-07T01:28:45.940Z,6.47
2022-08-07T01:31:18.185Z,6.03
2022-08-07T01:33:55.610Z,6.20
2022-08-07T01:36:33.564Z,6.50
2022-08-07T01:39:10.204Z,6.53
2022-08-07T01:42:07.892Z,6.20
2022-08-07T01:44:47.950Z,6.28
2022-08-07T01:48:19.533Z,6.40
2022-08-07T01:50:10.941Z,6.35
2022-08-07T01:52:49.679Z,6.10
2022-08-07T01:58:28.912Z,6.22
2022-08-07T02:01:09.767Z,6.13
2022-08-07T02:06:32.947Z,5.80
2022-08-07T02:12:03.667Z,6.40
2022-08-07T02:17:06.222Z,6.35
2022-08-07T02:20:04.605Z,6.38
2022-08-07T02:25:13.721Z,7.03
2022-08-07T02:27:51.217Z,6.25
2022-08-07T02:30:22.976Z,6.47
2022-08-07T02:36:30.963Z,6.75
2022-08-07T02:38:22.717Z,6.43
2022-08-07T02:40:59.436Z,6.32
2022-08-07T02:43:29.826Z,6.45
2022-08-07T02:46:03.670Z,6.15
2022-08-07T02:48:34.436Z,6.53
2022-08-07T02:51:07.723Z,6.18
2022-08-07T02:54:09.809Z,6.10
2022-08-07T02:56:43.837Z,5.90
2022-08-07T02:59:24.164Z,6.28
2022-08-07T03:01:57.665Z,6.47
2022-08-07T03:04:31.533Z,6.10
2022-08-07T03:07:10.326Z,5.72
2022-08-07T03:09:49.380Z,6.32
2022-08-07T03:12:30.736Z,6.25
2022-08-07T03:15:02.486Z,6.07
2022-08-07T03:17:54.045Z,6.30
2022-08-07T03:20:25.038Z,6.00
2022-08-07T03:22:55.612Z,6.20
2022-08-07T03:28:37.366Z,6.30
2022-08-07T03:33:58.930Z,5.97
2022-08-07T03:36:33.014Z,6.47
2022-08-07T03:39:06.765Z,6.35
2022-08-07T03:41:42.006Z,6.22
2022-08-07T03:44:31.903Z,6.57
2022-08-07T03:47:13.854Z,6.57
2022-08-07T03:49:47.729Z,6.30
2022-08-07T03:55:17.843Z,6.25
2022-08-07T04:03:49.500Z,6.57
2022-08-07T04:06:37.099Z,6.35
2022-08-07T04:09:06.366Z,6.15
2022-08-07T04:12:25.456Z,6.28
2022-08-07T04:14:37.983Z,5.83
2022-08-07T04:17:20.243Z,6.30
2022-08-07T04:19:56.805Z,6.13
2022-08-07T04:22:33.545Z,6.25
2022-08-07T04:25:08.877Z,6.38
2022-08-07T04:27:59.287Z,6.13
2022-08-07T04:30:39.319Z,6.72
2022-08-07T04:33:27.069Z,6.15
2022-08-07T04:36:17.864Z,5.97
2022-08-07T04:38:54.992Z,5.93
2022-08-07T04:41:27.304Z,5.97
2022-08-07T04:44:12.566Z,6.47
2022-08-07T04:47:04.261Z,6.00
2022-08-07T04:49:58.147Z,6.00
2022-08-07T04:52:51.127Z,6.50
2022-08-07T04:58:09.996Z,5.97
2022-08-07T04:58:49.650Z,6.70
2022-08-07T05:01:21.071Z,6.18
2022-08-07T05:04:08.856Z,6.90
2022-08-07T05:09:45.909Z,6.50
2022-08-07T05:12:26.859Z,5.90
2022-08-07T05:15:04.851Z,6.28
2022-08-07T05:17:51.643Z,6.07
2022-08-07T05:20:35.413Z,5.82
2022-08-07T05:23:15.613Z,6.00
2022-08-07T05:26:10.925Z,6.35
2022-08-07T05:28:48.453Z,5.80
2022-08-07T05:31:22.236Z,5.95
2022-08-07T05:36:39.152Z,6.13
2022-08-07T05:40:07.157Z,6.22
2022-08-07T05:42:05.270Z,6.25
2022-08-07T05:44:52.836Z,6.45
2022-08-07T05:48:00.311Z,6.43
2022-08-07T05:50:31.373Z,6.05
2022-08-07T05:56:06.082Z,6.00
2022-08-07T05:58:39.207Z,6.38
2022-08-07T06:01:11.761Z,5.00
2022-08-07T06:03:53.372Z,5.10
2022-08-07T06:09:22.794Z,4.80
2022-08-07T06:12:17.566Z,5.50
2022-08-07T06:14:52.118Z,4.90
2022-08-07T06:17:30.550Z,4.63
2022-08-07T06:20:25.415Z,4.88
2022-08-07T06:23:46.645Z,4.70
2022-08-07T06:28:28.574Z,5.07
2022-08-07T06:33:30.247Z,4.80
2022-08-07T06:36:12.937Z,4.90
2022-08-07T06:38:58.875Z,5.30
2022-08-07T06:42:01.732Z,5.20
2022-08-07T06:44:34.086Z,5.97
2022-08-07T06:49:59.636Z,5.40
2022-08-07T06:52:36.465Z,5.38
2022-08-07T06:57:47.694Z,5.28
2022-08-07T07:00:26.582Z,5.10
2022-08-07T07:02:58.178Z,5.15
2022-08-07T07:10:54.653Z,4.90
2022-08-07T07:13:55.338Z,5.45
2022-08-07T07:16:30.452Z,4.60
2022-08-07T07:19:54.712Z,4.88
2022-08-07T07:22:11.762Z,4.43
2022-08-07T07:24:58.359Z,4.65
2022-08-07T07:27:35.606Z,5.00
2022-08-07T07:30:37.832Z,4.97
2022-08-07T07:41:11.126Z,5.20
2022-08-07T07:43:47.836Z,5.38
2022-08-07T07:46:54.231Z,5.13
2022-08-07T07:50:36.254Z,5.10
2022-08-07T07:52:25.757Z,4.70
2022-08-07T07:55:04.538Z,5.18
2022-08-07T07:58:06.518Z,4.95
2022-08-07T08:00:35.842Z,4.85
2022-08-07T08:03:16.989Z,5.40
2022-08-07T08:08:37.011Z,5.80
2022-08-07T08:13:54.548Z,5.20
2022-08-07T08:22:17.363Z,5.22
2022-08-07T08:25:24.988Z,5.50
2022-08-07T08:28:10.644Z,5.93
2022-08-07T08:30:51.014Z,5.47
2022-08-07T08:33:33.138Z,5.20
2022-08-07T08:36:04.667Z,6.07
2022-08-07T08:38:41.402Z,5.80
2022-08-07T08:41:31.487Z,5.78
2022-08-07T08:44:29.312Z,5.80
2022-08-07T08:47:11.274Z,5.90
2022-08-07T08:50:02.447Z,5.45
2022-08-07T08:52:51.610Z,6.00
2022-08-07T08:55:54.371Z,6.28
2022-08-07T08:58:54.606Z,6.05
2022-08-07T09:01:29.763Z,6.30
2022-08-07T09:04:17.106Z,6.43
2022-08-07T09:07:01.672Z,5.63
2022-08-07T09:16:21.572Z,5.95
2022-08-07T09:19:07.283Z,5.40
2022-08-07T09:22:39.379Z,5.50
2022-08-07T09:25:17.931Z,5.50
2022-08-07T09:30:55.022Z,5.90
2022-08-07T09:33:57.954Z,6.05
2022-08-07T09:36:37.323Z,5.50
2022-08-07T09:39:27.481Z,5.50
2022-08-07T09:42:17.215Z,5.40
2022-08-07T09:47:27.671Z,5.13
2022-08-07T09:48:01.233Z,5.25
2022-08-07T09:50:35.762Z,5.10
2022-08-07T09:53:12.502Z,5.20
2022-08-07T09:56:03.290Z,5.40
2022-08-07T09:58:57.958Z,5.82
2022-08-07T10:01:53.779Z,5.95
2022-08-07T10:04:38.062Z,6.00
2022-08-07T10:10:21.323Z,6.22
2022-08-07T10:13:15.751Z,6.13
2022-08-07T10:16:31.021Z,6.22
2022-08-07T10:19:23.515Z,6.35
2022-08-07T10:22:15.583Z,6.50
2022-08-07T10:25:01.248Z,6.47
2022-08-07T10:27:45.853Z,5.82
2022-08-07T10:30:47.837Z,5.80
2022-08-07T10:34:05.951Z,5.63
2022-08-07T10:39:19.515Z,5.30
2022-08-07T10:42:09.225Z,5.30
2022-08-07T10:44:59.970Z,5.30
2022-08-07T10:47:53.906Z,5.70
2022-08-07T10:50:34.405Z,5.30
2022-08-07T10:53:12.778Z,5.40
2022-08-07T10:55:55.963Z,5.50
2022-08-07T10:58:59.648Z,5.35
2022-08-07T11:02:04.740Z,5.35
2022-08-07T11:05:14.723Z,5.15
2022-08-07T11:07:58.809Z,5.10
2022-08-07T11:10:40.012Z,5.10
2022-08-07T11:14:45.763Z,5.00
2022-08-07T11:16:40.569Z,5.25
2022-08-07T11:19:21.450Z,5.00
2022-08-07T11:24:55.239Z,5.20
2022-08-07T11:28:01.326Z,5.30
2022-08-07T11:30:41.990Z,5.40
2022-08-07T11:33:58.698Z,5.18
2022-08-07T11:36:13.916Z,5.10
2022-08-07T11:38:55.644Z,5.10
2022-08-07T11:42:01.595Z,5.30
2022-08-07T11:44:35.459Z,5.00
2022-08-07T11:47:09.962Z,5.25
2022-08-07T11:50:32.990Z,4.93
2022-08-07T11:53:01.681Z,5.00
2022-08-07T11:56:15.490Z,5.18
2022-08-07T12:01:59.479Z,5.50
2022-08-07T12:04:46.663Z,5.20
2022-08-07T12:07:26.938Z,5.40
2022-08-07T12:10:05.851Z,5.15
2022-08-07T12:12:41.641Z,5.10
2022-08-07T12:15:17.141Z,5.68
2022-08-07T12:18:16.585Z,5.28
2022-08-07T12:24:07.707Z,5.15
2022-08-07T12:26:49.598Z,5.03
2022-08-07T12:29:37.177Z,4.90
2022-08-07T12:32:16.357Z,4.90
2022-08-07T12:42:32.314Z,5.20
2022-08-07T12:45:08.018Z,4.88
2022-08-07T12:47:54.742Z,5.03
2022-08-07T12:54:02.675Z,5.10
2022-08-07T12:56:43.129Z,5.00
2022-08-07T12:59:24.384Z,5.35
2022-08-07T13:02:25.041Z,5.60
2022-08-07T13:05:10.341Z,4.93
2022-08-07T13:11:06.740Z,5.03
2022-08-07T13:13:48.097Z,5.20
2022-08-07T13:16:27.084Z,5.10
2022-08-07T13:19:04.544Z,5.10
2022-08-07T13:21:57.555Z,5.20
2022-08-07T13:24:43.988Z,5.20
2022-08-07T13:30:19.654Z,4.97
2022-08-07T13:33:06.691Z,5.35
2022-08-07T13:36:05.364Z,5.60
2022-08-07T13:38:37.972Z,5.38
2022-08-07T13:46:49.522Z,5.70
2022-08-07T13:50:32.956Z,5.65
2022-08-07T13:52:31.779Z,5.32
2022-08-07T13:55:04.909Z,5.30
2022-08-07T13:57:38.961Z,5.40
2022-08-07T14:03:14.306Z,5.20
2022-08-07T14:05:59.845Z,5.10
2022-08-07T14:08:33.568Z,5.20
2022-08-07T14:11:14.483Z,5.25
2022-08-07T14:13:57.076Z,5.47
2022-08-07T14:20:42.000Z,5.18
2022-08-07T14:22:34.571Z,5.50
2022-08-07T14:25:11.129Z,5.50
2022-08-07T14:28:11.493Z,5.40
2022-08-07T14:30:40.615Z,5.57
2022-08-07T14:33:16.410Z,5.60
2022-08-07T14:35:56.023Z,5.47
2022-08-07T14:38:31.417Z,5.72
2022-08-07T14:41:05.982Z,5.28
2022-08-07T14:43:58.262Z,5.30
2022-08-07T14:49:56.789Z,5.30
2022-08-07T14:52:23.359Z,5.30
2022-08-07T14:54:59.659Z,5.32
2022-08-07T14:57:54.639Z,5.25
2022-08-07T15:00:31.153Z,5.00
2022-08-07T15:03:19.339Z,5.28
2022-08-07T15:05:54.876Z,5.30
2022-08-07T15:08:50.345Z,5.32
2022-08-07T15:14:22.304Z,5.40
2022-08-07T15:16:55.966Z,5.80
2022-08-07T15:22:31.461Z,5.55
2022-08-07T15:25:17.521Z,5.10
2022-08-07T15:28:32.124Z,5.55
2022-08-07T15:31:05.135Z,5.30
2022-08-07T15:33:42.989Z,5.40
2022-08-07T15:36:13.573Z,5.38
2022-08-07T15:39:10.633Z,5.40
2022-08-07T15:44:51.933Z,5.70
2022-08-07T15:50:03.830Z,5.40
2022-08-07T15:52:37.412Z,5.60
2022-08-07T15:55:11.615Z,5.70
2022-08-07T15:57:49.450Z,5.60
2022-08-07T16:00:35.163Z,5.20
2022-08-07T16:05:48.693Z,5.18
2022-08-07T16:10:58.651Z,5.30
2022-08-07T16:14:03.164Z,5.55
2022-08-07T16:22:54.915Z,5.70
2022-08-07T16:25:54.141Z,5.50
2022-08-07T16:30:07.781Z,5.20
2022-08-07T16:31:50.820Z,5.40
2022-08-07T16:34:33.724Z,5.60
2022-08-07T16:38:05.229Z,5.65
2022-08-07T16:41:01.707Z,5.70
2022-08-07T16:47:16.353Z,5.50
2022-08-07T16:50:26.873Z,5.78
2022-08-07T16:53:48.347Z,5.70
2022-08-07T16:56:13.312Z,5.72
2022-08-07T16:59:11.294Z,5.60
2022-08-07T17:01:41.774Z,5.50
2022-08-07T17:04:15.443Z,5.50
2022-08-07T17:07:16.702Z,5.80
2022-08-07T17:10:05.980Z,5.50
2022-08-07T17:12:52.854Z,5.47
2022-08-07T17:15:44.499Z,5.50
2022-08-07T17:18:29.439Z,5.82
2022-08-07T17:20:59.589Z,5.85
2022-08-07T17:23:37.050Z,6.00
2022-08-07T17:26:23.324Z,5.70
2022-08-07T17:29:09.037Z,5.90
2022-08-07T17:32:02.513Z,5.85
2022-08-07T17:34:43.695Z,5.40
2022-08-07T17:38:05.715Z,5.55
2022-08-07T17:40:44.656Z,5.78
2022-08-07T17:44:01.621Z,5.72
2022-08-07T17:46:40.221Z,6.20
2022-08-07T17:49:23.376Z,6.22
2022-08-07T17:55:12.953Z,5.65
2022-08-07T18:00:34.753Z,5.53
2022-08-07T18:04:04.141Z,5.90
2022-08-07T18:10:04.683Z,5.65
2022-08-07T18:12:30.217Z,5.70
2022-08-07T18:15:08.786Z,5.53
2022-08-07T18:18:39.941Z,5.40
2022-08-07T18:21:04.455Z,5.43
2022-08-07T18:23:42.069Z,5.47
2022-08-07T18:30:06.735Z,5.47
2022-08-07T18:32:21.235Z,4.97
2022-08-07T18:35:04.362Z,5.50
2022-08-07T18:40:42.807Z,5.82
2022-08-07T18:43:36.856Z,5.82
2022-08-07T18:46:27.510Z,5.35
2022-08-07T18:50:05.526Z,5.68
2022-08-07T18:52:51.941Z,5.80
2022-08-07T18:58:51.341Z,5.20
2022-08-07T19:02:18.841Z,5.55
2022-08-07T19:04:57.712Z,5.75
2022-08-07T19:07:51.998Z,5.30
2022-08-07T19:10:49.837Z,5.13
2022-08-07T19:17:00.561Z,5.13
2022-08-07T19:19:32.105Z,5.18
2022-08-07T19:22:14.873Z,5.22
2022-08-07T19:24:52.780Z,5.07
2022-08-07T19:31:00.841Z,5.22
2022-08-07T19:33:15.388Z,5.38
2022-08-07T19:36:03.133Z,4.95
2022-08-07T19:38:41.495Z,5.18
2022-08-07T19:41:44.533Z,5.60
2022-08-07T19:47:30.968Z,5.70
2022-08-07T19:52:58.234Z,5.50
2022-08-07T19:55:56.603Z,5.30
2022-08-07T19:58:28.370Z,5.13
2022-08-07T20:03:36.422Z,6.05
2022-08-07T20:06:15.335Z,6.38
2022-08-07T20:09:04.316Z,6.82
2022-08-07T20:12:22.928Z,6.35
2022-08-07T20:14:53.658Z,6.90
2022-08-07T20:17:31.504Z,8.30
2022-08-07T20:20:09.566Z,8.52
2022-08-07T20:22:50.445Z,6.88
2022-08-07T20:25:26.135Z,6.18
2022-08-07T20:28:12.184Z,6.57
2022-08-07T20:31:01.033Z,6.30
2022-08-07T20:33:48.187Z,6.40
2022-08-07T20:36:32.028Z,6.45
2022-08-07T20:39:31.147Z,6.35
2022-08-07T20:42:09.651Z,7.28
2022-08-07T20:44:52.977Z,7.55
2022-08-07T20:50:20.662Z,7.13
2022-08-07T20:52:55.541Z,6.63
2022-08-07T20:55:37.240Z,6.50
2022-08-07T21:00:57.211Z,6.47
2022-08-07T21:06:28.143Z,7.13
2022-08-07T21:09:13.641Z,6.50
2022-08-07T21:11:50.491Z,7.00
2022-08-07T21:14:32.047Z,6.13
2022-08-07T21:20:29.509Z,6.20
2022-08-07T21:23:30.763Z,6.55
2022-08-07T21:26:10.416Z,6.10
2022-08-07T21:34:32.059Z,5.82
2022-08-07T21:37:07.198Z,5.93
2022-08-07T21:39:54.900Z,5.78
2022-08-07T21:42:42.303Z,6.05
2022-08-07T21:46:07.725Z,6.18
2022-08-07T21:48:29.012Z,5.80
2022-08-07T21:51:20.442Z,6.40
2022-08-07T21:53:56.301Z,5.93
2022-08-07T21:56:49.188Z,6.25
2022-08-07T21:59:25.448Z,6.07
2022-08-07T22:02:07.098Z,6.40
2022-08-07T22:04:53.454Z,5.95
2022-08-07T22:10:05.873Z,6.07
2022-08-07T22:12:39.885Z,6.18
2022-08-07T22:16:38.396Z,5.97
2022-08-07T22:18:12.957Z,6.57
2022-08-07T22:20:53.006Z,6.47
2022-08-07T22:23:27.803Z,6.50
2022-08-07T22:26:05.803Z,6.10
2022-08-07T22:32:00.042Z,6.22
2022-08-07T22:34:49.775Z,6.28
2022-08-07T22:40:30.465Z,6.65
2022-08-07T22:43:08.150Z,6.50
2022-08-07T22:46:21.288Z,6.40
2022-08-07T22:49:09.425Z,7.15
2022-08-07T22:51:57.631Z,6.80
2022-08-07T22:54:48.965Z,8.05
2022-08-07T22:57:42.405Z,7.07
2022-08-07T23:00:17.089Z,7.75
2022-08-07T23:03:10.912Z,7.25
2022-08-07T23:06:09.606Z,7.78
2022-08-07T23:08:53.046Z,6.90
2022-08-07T23:11:41.593Z,6.72
2022-08-07T23:14:37.565Z,7.00
2022-08-07T23:17:45.180Z,7.38
2022-08-07T23:20:55.985Z,6.88
2022-08-07T23:24:06.857Z,6.82
2022-08-07T23:26:50.331Z,7.38
2022-08-07T23:30:36.228Z,6.97
2022-08-07T23:34:34.330Z,6.95
2022-08-07T23:35:50.206Z,6.70
2022-08-07T23:38:42.733Z,6.90
2022-08-07T23:41:33.417Z,6.65
2022-08-07T23:44:24.809Z,7.00
2022-08-07T23:50:30.153Z,7.47
2022-08-07T23:53:08.591Z,7.63
2022-08-07T23:55:55.530Z,6.97
2022-08-07T23:58:38.612Z,7.00
